Time;durP1;ratioP1;P1;durP2;ratioP2;P2;SDS_P1;SDS_P2;PMS_P1;PMS_P2;Temp;Humidity;BMP_temperature;BMP_pressure;BME280_temperature;BME280_humidity;BME280_pressure;Samples;Min_cycle;Max_cycle;Signal;HPM_P1;HPM_P2
2022/11/28 00:02:02;;;;;;;22.90;14.13;;;5.20;83.90;;;;;;5092789;28;20020;-68
2022/11/28 00:04:28;;;;;;;25.87;14.57;;;5.20;84.30;;;;;;5092809;28;20102;-68
2022/11/28 00:06:54;;;;;;;23.97;13.47;;;5.10;84.80;;;;;;5092934;28;20378;-68
2022/11/28 00:09:20;;;;;;;21.20;13.53;;;5.10;84.60;;;;;;5092777;28;20376;-68
2022/11/28 00:11:48;;;;;;;22.43;13.23;;;5.10;84.50;;;;;;5092982;28;20054;-68
2022/11/28 00:14:15;;;;;;;24.13;13.10;;;5.00;84.80;;;;;;5090599;28;20027;-68
2022/11/28 00:16:41;;;;;;;22.10;13.17;;;5.00;85.20;;;;;;5089927;28;20042;-68
2022/11/28 00:19:07;;;;;;;21.87;11.97;;;4.90;85.40;;;;;;5092165;28;20095;-68
2022/11/28 00:21:33;;;;;;;21.40;12.43;;;4.90;85.40;;;;;;5093004;28;20052;-68
2022/11/28 00:24:00;;;;;;;22.33;12.87;;;4.90;85.60;;;;;;5092887;28;20025;-68
2022/11/28 00:26:29;;;;;;;19.53;12.10;;;4.80;86.10;;;;;;5092999;28;20082;-68
2022/11/28 00:28:56;;;;;;;19.47;12.17;;;4.80;86.00;;;;;;5092546;28;20351;-68
2022/11/28 00:31:24;;;;;;;18.70;13.23;;;4.70;86.40;;;;;;5092516;28;20051;-68
2022/11/28 00:33:50;;;;;;;24.13;13.67;;;4.70;86.90;;;;;;5092759;28;20020;-68
2022/11/28 00:36:17;;;;;;;21.33;12.73;;;4.70;87.10;;;;;;5092597;28;20051;-68
2022/11/28 00:38:43;;;;;;;15.77;11.10;;;4.60;87.20;;;;;;5090503;28;20115;-68
2022/11/28 00:41:17;;;;;;;16.93;10.80;;;4.60;87.90;;;;;;5089764;28;20535;-68
2022/11/28 00:43:44;;;;;;;20.43;10.70;;;4.60;88.50;;;;;;5093845;28;20035;-68
2022/11/28 00:46:11;;;;;;;15.57;10.07;;;4.60;87.70;;;;;;5096042;28;20374;-68
2022/11/28 00:48:37;;;;;;;15.77;9.93;;;4.60;88.20;;;;;;5096562;28;20025;-68
2022/11/28 00:51:08;;;;;;;16.60;9.77;;;4.60;88.80;;;;;;5096429;28;20028;-68
2022/11/28 00:53:35;;;;;;;16.00;9.50;;;4.60;89.20;;;;;;5095944;28;20020;-68
2022/11/28 00:56:04;;;;;;;16.73;10.23;;;4.60;89.40;;;;;;5096310;28;20095;-68
2022/11/28 00:58:30;;;;;;;19.97;9.90;;;4.50;89.20;;;;;;5096372;28;20477;-68
2022/11/28 01:00:55;;;;;;;16.97;9.60;;;4.60;89.60;;;;;;5096673;28;20032;-68
2022/11/28 01:03:21;;;;;;;15.30;9.17;;;4.50;89.60;;;;;;5096281;28;20020;-69
2022/11/28 01:05:47;;;;;;;16.83;9.37;;;4.50;89.80;;;;;;5096260;28;20032;-68
2022/11/28 01:08:12;;;;;;;14.73;9.33;;;4.60;89.90;;;;;;5094465;28;20385;-68
2022/11/28 01:10:41;;;;;;;14.97;9.03;;;4.60;89.80;;;;;;5095893;28;20375;-69
2022/11/28 01:13:07;;;;;;;17.63;9.37;;;4.60;89.80;;;;;;5095880;28;20028;-68
2022/11/28 01:15:33;;;;;;;17.53;9.30;;;4.50;89.60;;;;;;5096141;28;20023;-68
2022/11/28 01:18:00;;;;;;;19.07;9.73;;;4.50;90.00;;;;;;5095998;28;20028;-68
2022/11/28 01:20:25;;;;;;;13.67;9.20;;;4.50;90.00;;;;;;5095893;28;20027;-68
2022/11/28 01:22:51;;;;;;;14.07;8.90;;;4.50;90.00;;;;;;5095445;28;20378;-68
2022/11/28 01:25:17;;;;;;;13.37;8.70;;;4.50;90.00;;;;;;5095613;28;20450;-68
2022/11/28 01:27:42;;;;;;;18.03;8.87;;;4.50;90.20;;;;;;5095783;28;20036;-69
2022/11/28 06:23:11;;;;;;;18.53;7.93;;;3.40;90.90;;;;;;5048622;28;20454;-67
2022/11/28 06:25:36;;;;;;;9.53;6.80;;;3.40;91.10;;;;;;5054487;28;20029;-68
2022/11/28 06:28:02;;;;;;;16.43;7.03;;;3.40;91.10;;;;;;5053657;28;20475;-68
2022/11/28 06:30:28;;;;;;;14.30;7.57;;;3.40;91.00;;;;;;5053751;28;20049;-68
2022/11/28 06:32:53;;;;;;;19.50;9.33;;;3.40;91.10;;;;;;5054364;28;20502;-67
2022/11/28 06:35:19;;;;;;;13.87;9.00;;;3.40;91.30;;;;;;5054361;28;20033;-68
2022/11/28 06:37:45;;;;;;;14.70;8.33;;;3.40;91.50;;;;;;5054194;28;20029;-68
2022/11/28 06:40:10;;;;;;;18.20;7.80;;;3.40;91.60;;;;;;5054487;28;20025;-67
2022/11/28 06:42:36;;;;;;;16.30;8.07;;;3.40;92.00;;;;;;5054424;28;20045;-68
2022/11/28 06:45:03;;;;;;;15.17;6.97;;;3.50;92.00;;;;;;5054484;28;20111;-68
2022/11/28 06:47:29;;;;;;;13.90;7.20;;;3.40;92.00;;;;;;5054478;28;20033;-68
2022/11/28 06:49:55;;;;;;;10.33;6.40;;;3.50;92.30;;;;;;5054199;28;20036;-68
2022/11/28 06:52:20;;;;;;;10.03;6.90;;;3.50;92.40;;;;;;5054270;28;20041;-68
2022/11/28 06:54:46;;;;;;;12.47;7.40;;;3.60;92.80;;;;;;5054013;28;20040;-68
2022/11/28 06:57:12;;;;;;;18.80;6.67;;;3.70;92.80;;;;;;5054001;28;20110;-68
2022/11/28 06:59:38;;;;;;;10.23;5.93;;;3.80;92.40;;;;;;5054094;28;20037;-68
2022/11/28 07:02:05;;;;;;;8.93;5.67;;;3.90;92.30;;;;;;5053758;28;20403;-68
2022/11/28 07:04:31;;;;;;;10.43;5.90;;;3.90;92.10;;;;;;5053840;28;20407;-68
2022/11/28 07:06:57;;;;;;;12.20;5.70;;;4.00;92.30;;;;;;5053476;28;20485;-69
2022/11/28 07:09:22;;;;;;;9.77;5.40;;;4.10;92.20;;;;;;5053372;28;20037;-69
2022/11/28 07:11:48;;;;;;;8.47;5.30;;;4.20;92.10;;;;;;5053496;28;20053;-68
2022/11/28 07:14:14;;;;;;;8.57;4.70;;;4.30;91.70;;;;;;5053829;28;20033;-68
2022/11/28 07:16:39;;;;;;;11.20;5.53;;;4.40;91.40;;;;;;5053581;28;20041;-68
2022/11/28 07:19:05;;;;;;;9.37;5.20;;;4.40;91.60;;;;;;5053744;28;20037;-67
2022/11/28 07:21:31;;;;;;;10.63;5.80;;;4.50;91.60;;;;;;5053582;28;20052;-67
2022/11/28 07:23:58;;;;;;;10.07;4.97;;;4.60;91.50;;;;;;5053462;28;20041;-68
2022/11/28 07:26:24;;;;;;;9.60;6.10;;;4.70;91.90;;;;;;5053535;28;20044;-67
2022/11/28 07:28:51;;;;;;;24.90;7.43;;;4.80;92.10;;;;;;5052192;28;20040;-68
2022/11/28 07:31:24;;;;;;;37.40;8.73;;;4.80;91.80;;;;;;5053135;28;20075;-67
2022/11/28 07:33:50;;;;;;;17.88;7.60;;;4.90;91.50;;;;;;5053554;28;20029;-68
2022/11/28 07:36:26;;;;;;;26.13;8.67;;;5.00;91.20;;;;;;5053144;28;20037;-67
2022/11/28 07:38:57;;;;;;;41.57;9.30;;;5.00;90.60;;;;;;5053256;28;20028;-67
2022/11/28 07:41:24;;;;;;;36.53;10.67;;;5.20;90.00;;;;;;5053515;28;20025;-68
2022/11/28 07:43:56;;;;;;;25.10;10.00;;;5.20;90.10;;;;;;5053189;28;20041;-67
2022/11/28 07:46:23;;;;;;;38.25;12.23;;;5.30;89.30;;;;;;5053059;28;20025;-67
2022/11/28 07:48:49;;;;;;;24.50;12.70;;;5.30;90.00;;;;;;5053189;28;20115;-68
2022/11/28 07:51:23;;;;;;;30.37;12.97;;;5.40;90.00;;;;;;5052699;28;20140;-67
2022/11/28 07:53:49;;;;;;;37.60;14.40;;;5.30;90.00;;;;;;5053297;28;20091;-67
2022/11/28 07:56:19;;;;;;;27.60;14.03;;;5.40;89.60;;;;;;5053136;28;20042;-67
2022/11/28 07:58:46;;;;;;;28.60;13.87;;;5.40;89.40;;;;;;5053192;28;20033;-68
2022/11/28 08:01:17;;;;;;;22.33;12.67;;;5.50;90.00;;;;;;5052690;28;20040;-68
2022/11/28 08:03:44;;;;;;;25.67;11.67;;;5.50;90.50;;;;;;5052774;28;20044;-69
2022/11/28 08:06:10;;;;;;;19.33;11.43;;;5.60;90.50;;;;;;5052765;28;20060;-67
2022/11/28 08:08:36;;;;;;;18.80;9.37;;;5.60;90.30;;;;;;5052506;28;20079;-68
2022/11/28 08:11:05;;;;;;;16.93;9.07;;;5.70;89.70;;;;;;5052544;28;20499;-68
2022/11/28 08:13:31;;;;;;;12.83;8.20;;;5.80;89.10;;;;;;5052569;28;20029;-68
2022/11/28 08:15:57;;;;;;;14.97;7.80;;;5.90;88.70;;;;;;5052733;28;20075;-68
2022/11/28 08:18:23;;;;;;;21.00;7.97;;;5.90;88.90;;;;;;5053004;28;20037;-68
2022/11/28 08:23:24;;;;;;;15.77;9.03;;;6.00;88.30;;;;;;4996197;23;20431;-67
2022/11/28 08:25:50;;;;;;;18.10;8.67;;;6.10;87.80;;;;;;5010289;28;20124;-66
2022/11/28 08:28:15;;;;;;;16.13;8.53;;;6.10;87.40;;;;;;5012953;28;20435;-68
2022/11/28 08:30:41;;;;;;;19.23;8.40;;;6.20;87.30;;;;;;5012954;28;20124;-69
2022/11/28 08:33:07;;;;;;;16.43;7.37;;;6.20;87.00;;;;;;5012953;28;20042;-68
2022/11/28 08:35:32;;;;;;;13.47;7.33;;;6.30;87.00;;;;;;5012782;28;20037;-69
2022/11/28 08:37:58;;;;;;;11.30;6.43;;;6.40;87.50;;;;;;5013003;28;20038;-69
2022/11/28 08:40:24;;;;;;;12.53;6.23;;;6.40;87.10;;;;;;5012910;28;20038;-68
2022/11/28 08:42:49;;;;;;;14.90;7.13;;;6.50;86.60;;;;;;5012889;28;20045;-68
2022/11/28 08:45:15;;;;;;;33.80;8.47;;;6.50;86.50;;;;;;5012547;28;20418;-69
2022/11/28 08:47:41;;;;;;;21.60;7.83;;;6.60;86.50;;;;;;5012875;28;20120;-69
2022/11/28 08:50:06;;;;;;;29.87;8.13;;;6.60;86.10;;;;;;5012636;28;20591;-69
2022/11/28 08:52:32;;;;;;;28.37;8.13;;;6.70;85.90;;;;;;5012865;28;20037;-68
2022/11/28 08:54:58;;;;;;;17.93;6.40;;;6.70;85.90;;;;;;5013072;28;20038;-69
2022/11/28 08:57:23;;;;;;;19.00;7.20;;;6.80;86.40;;;;;;5012749;28;20034;-68
2022/11/28 08:59:49;;;;;;;16.00;6.83;;;6.80;86.10;;;;;;5012048;28;20121;-69
2022/11/28 09:02:15;;;;;;;14.13;7.53;;;6.90;86.90;;;;;;5012659;28;20066;-69
2022/11/28 09:04:40;;;;;;;16.50;8.40;;;6.90;86.80;;;;;;5016378;28;20034;-70
2022/11/28 09:07:06;;;;;;;19.30;8.30;;;6.90;86.70;;;;;;5015606;28;20048;-69
2022/11/28 09:09:32;;;;;;;14.03;6.97;;;7.00;87.20;;;;;;5016194;28;20068;-69
2022/11/28 09:11:57;;;;;;;14.60;6.37;;;7.00;87.60;;;;;;5016468;28;20049;-68
2022/11/28 09:14:25;;;;;;;21.93;6.47;;;7.00;86.90;;;;;;5016107;28;20038;-69
2022/11/28 09:16:51;;;;;;;10.57;4.97;;;7.10;87.70;;;;;;5016510;28;20411;-68
2022/11/28 09:19:17;;;;;;;6.70;4.43;;;7.10;87.10;;;;;;5016292;28;20030;-69
2022/11/28 09:21:42;;;;;;;11.23;4.80;;;7.10;84.70;;;;;;5016733;28;20060;-69
2022/11/28 09:24:08;;;;;;;6.93;4.10;;;7.20;84.60;;;;;;5016236;28;20137;-69
2022/11/28 09:26:34;;;;;;;9.93;4.00;;;7.20;83.60;;;;;;5016505;28;20053;-68
2022/11/28 09:28:59;;;;;;;5.43;3.60;;;7.20;83.30;;;;;;5016194;28;20436;-69
2022/11/28 09:31:25;;;;;;;8.87;4.83;;;7.20;83.10;;;;;;5015951;28;20037;-68
2022/11/28 09:33:51;;;;;;;13.67;6.43;;;7.30;82.80;;;;;;5016305;28;20037;-69
2022/11/28 09:36:19;;;;;;;11.27;6.33;;;7.40;83.70;;;;;;5016000;28;20148;-69
2022/11/28 09:38:46;;;;;;;10.27;6.37;;;7.40;83.80;;;;;;5015857;28;20053;-69
2022/11/28 09:41:20;;;;;;;8.67;5.33;;;7.40;84.20;;;;;;5015866;28;20488;-69
2022/11/28 09:43:48;;;;;;;8.10;5.00;;;7.40;84.20;;;;;;5015849;28;20041;-69
2022/11/28 09:46:23;;;;;;;12.03;5.97;;;7.50;83.90;;;;;;5014733;28;20030;-69
2022/11/28 09:48:53;;;;;;;11.07;5.27;;;7.50;83.40;;;;;;5016425;28;20124;-69
2022/11/28 09:51:21;;;;;;;23.43;5.90;;;7.50;83.60;;;;;;5015418;28;20525;-69
2022/11/28 09:54:18;;;;;;;9.73;4.30;;;7.60;84.20;;;;;;5014915;28;20168;-69
2022/11/28 09:56:47;;;;;;;8.07;4.97;;;7.60;82.10;;;;;;5009152;28;20045;-69
2022/11/28 09:59:31;;;;;;;16.47;5.57;;;7.60;81.90;;;;;;5015480;28;20157;-69
2022/11/28 10:02:12;;;;;;;12.57;5.60;;;7.70;82.60;;;;;;5015717;28;20050;-69
2022/11/28 10:04:55;;;;;;;13.30;3.83;;;7.70;82.30;;;;;;5015537;28;20534;-69
2022/11/28 10:07:39;;;;;;;9.90;4.10;;;7.70;81.40;;;;;;5015324;28;20094;-70
2022/11/28 10:10:18;;;;;;;6.00;3.77;;;7.80;81.90;;;;;;4997949;28;20041;-69
2022/11/28 10:13:16;;;;;;;6.40;3.90;;;7.80;81.50;;;;;;5015591;28;20034;-69
2022/11/28 10:15:42;;;;;;;6.40;3.90;;;7.80;82.60;;;;;;5015415;28;20061;-69
2022/11/28 10:18:26;;;;;;;5.00;2.93;;;7.80;81.60;;;;;;4997787;28;20065;-69
2022/11/28 10:20:57;;;;;;;6.17;3.60;;;7.90;80.70;;;;;;5015652;28;20594;-69
2022/11/28 10:23:29;;;;;;;6.97;3.40;;;7.90;80.20;;;;;;5015154;28;20120;-70
2022/11/28 10:26:29;;;;;;;6.43;3.92;;;8.00;80.00;;;;;;5015419;28;20081;-69
2022/11/28 10:28:58;;;;;;;14.07;9.07;;;8.00;81.40;;;;;;4989905;28;20076;-69
2022/11/28 10:31:30;;;;;;;10.07;4.37;;;8.10;80.10;;;;;;5015096;28;20057;-69
2022/11/28 10:34:18;;;;;;;6.88;4.28;;;8.10;79.70;;;;;;5014926;28;20510;-69
2022/11/28 10:37:02;;;;;;;5.03;3.43;;;8.10;79.60;;;;;;5014872;28;20044;-69
2022/11/28 10:39:27;;;;;;;6.07;3.63;;;8.10;79.20;;;;;;5014868;28;20057;-69
2022/11/28 10:42:12;;;;;;;6.00;3.80;;;8.10;79.10;;;;;;5014533;28;20033;-69
2022/11/28 10:45:06;;;;;;;6.10;3.70;;;8.20;79.00;;;;;;5015004;28;20033;-68
2022/11/28 10:47:58;;;;;;;4.73;3.57;;;8.20;79.30;;;;;;5014767;28;20188;-69
2022/11/28 10:50:29;;;;;;;6.03;3.63;;;8.20;79.60;;;;;;5010757;28;20034;-69
2022/11/28 10:53:17;;;;;;;6.93;4.27;;;8.30;78.80;;;;;;5014629;28;20484;-69
2022/11/28 10:56:05;;;;;;;4.77;3.80;;;8.30;78.50;;;;;;5018609;28;20033;-69
2022/11/28 10:58:51;;;;;;;6.60;3.90;;;8.30;78.70;;;;;;5034102;28;20038;-69
2022/11/28 11:01:17;;;;;;;7.63;3.40;;;8.30;78.50;;;;;;5034073;28;20037;-69
2022/11/28 11:03:43;;;;;;;6.57;3.97;;;8.30;78.10;;;;;;5033923;28;20036;-69
2022/11/28 11:06:08;;;;;;;4.83;3.30;;;8.30;77.90;;;;;;5027046;28;20046;-69
2022/11/28 11:08:36;;;;;;;8.63;3.40;;;8.40;77.80;;;;;;5019821;28;20033;-69
2022/11/28 11:11:24;;;;;;;5.30;3.40;;;8.40;77.00;;;;;;5024180;28;20112;-69
2022/11/28 11:14:10;;;;;;;4.73;2.93;;;8.50;76.60;;;;;;5026739;28;20037;-70
2022/11/28 11:16:47;;;;;;;9.73;4.10;;;8.50;76.40;;;;;;5028736;28;20534;-69
2022/11/28 11:19:24;;;;;;;6.00;3.43;;;8.50;76.90;;;;;;4998675;28;20033;-69
2022/11/28 11:22:17;;;;;;;4.80;3.13;;;8.60;77.30;;;;;;5014099;28;20524;-68
2022/11/28 11:24:44;;;;;;;4.30;2.97;;;8.60;77.70;;;;;;5013838;28;20107;-69
2022/11/28 11:27:20;;;;;;;7.27;3.63;;;8.70;76.90;;;;;;5013324;28;20080;-69
2022/11/28 11:29:46;;;;;;;7.57;4.27;;;8.70;77.70;;;;;;5013959;28;20030;-69
2022/11/28 11:32:38;;;;;;;8.90;3.50;;;8.80;76.40;;;;;;5013760;28;20042;-69
2022/11/28 11:35:05;;;;;;;5.17;3.00;;;8.80;76.20;;;;;;5010290;28;20042;-69
2022/11/28 11:37:35;;;;;;;7.63;3.90;;;8.90;76.60;;;;;;5013798;28;20100;-68
2022/11/28 11:40:16;;;;;;;4.40;3.40;;;8.90;76.00;;;;;;5013636;28;20033;-69
2022/11/28 11:42:57;;;;;;;7.37;3.80;;;8.90;76.00;;;;;;5014129;28;20030;-67
2022/11/28 11:45:34;;;;;;;6.03;3.20;;;8.90;75.60;;;;;;5013700;28;20034;-69
2022/11/28 11:48:00;;;;;;;5.17;3.23;;;9.00;75.10;;;;;;5013819;28;20061;-69
2022/11/28 11:50:30;;;;;;;3.97;3.20;;;9.00;75.30;;;;;;5013389;28;20458;-68
2022/11/28 11:53:14;;;;;;;5.60;4.00;;;9.00;75.50;;;;;;5013435;28;20037;-69
2022/11/28 11:55:47;;;;;;;4.73;3.30;;;9.00;74.50;;;;;;5013431;28;20034;-67
2022/11/28 11:58:17;;;;;;;6.70;3.00;;;9.00;74.20;;;;;;5013717;28;20030;-66
2022/11/28 12:00:44;;;;;;;5.67;3.70;;;9.00;74.10;;;;;;5013457;28;20435;-67
2022/11/28 12:03:10;;;;;;;7.73;4.07;;;9.10;74.60;;;;;;5013447;28;20091;-67
2022/11/28 12:05:51;;;;;;;6.30;3.93;;;9.10;74.80;;;;;;5013634;28;20435;-67
2022/11/28 12:08:44;;;;;;;6.73;4.13;;;9.00;75.30;;;;;;5012949;28;20042;-69
2022/11/28 12:11:21;;;;;;;6.93;4.17;;;9.10;75.40;;;;;;5013574;28;20048;-67
2022/11/28 12:13:48;;;;;;;6.53;3.60;;;9.10;76.10;;;;;;5013292;28;20041;-66
2022/11/28 12:17:02;;;;;;;6.93;3.97;;;9.10;75.70;;;;;;5013357;28;20480;-66
2022/11/28 12:19:41;;;;;;;;;;;9.10;75.10;;;;;;4977876;28;20038;-69
2022/11/28 12:22:16;;;;;;;7.33;3.53;;;9.10;75.00;;;;;;5013285;28;19951;-69
2022/11/28 12:25:01;;;;;;;5.70;2.97;;;9.10;75.80;;;;;;5028625;28;20060;-69
2022/11/28 12:27:26;;;;;;;5.97;3.33;;;9.00;75.10;;;;;;5032577;28;20539;-69
2022/11/28 12:30:15;;;;;;;5.83;3.50;;;9.00;74.60;;;;;;5032542;28;20221;-69
2022/11/28 12:32:57;;;;;;;10.23;3.63;;;9.00;74.00;;;;;;4994928;28;20050;-69
2022/11/28 12:35:41;;;;;;;10.00;4.23;;;9.00;73.50;;;;;;5032785;28;20049;-69
2022/11/28 12:38:26;;;;;;;6.57;4.13;;;9.00;74.00;;;;;;5035675;28;20044;-69
2022/11/28 12:41:00;;;;;;;9.57;4.03;;;9.00;72.30;;;;;;5036881;28;20108;-69
2022/11/28 12:43:58;;;;;;;10.10;4.37;;;9.00;72.00;;;;;;5036501;28;20029;-69
2022/11/28 12:46:29;;;;;;;11.43;4.53;;;9.00;71.50;;;;;;5036545;28;20034;-69
2022/11/28 12:49:19;;;;;;;10.47;4.27;;;9.00;72.10;;;;;;5036735;28;20075;-69
2022/11/28 12:52:03;;;;;;;6.60;4.20;;;9.00;72.20;;;;;;5036216;28;20081;-70
2022/11/28 12:54:41;;;;;;;12.03;4.23;;;9.00;71.50;;;;;;5036884;28;20037;-69
2022/11/28 12:57:41;;;;;;;6.43;3.70;;;9.00;71.80;;;;;;5036678;28;20043;-69
2022/11/28 13:00:18;;;;;;;5.00;3.40;;;9.00;70.50;;;;;;5005616;28;20033;-69
2022/11/28 13:03:12;;;;;;;5.43;3.57;;;9.00;69.60;;;;;;5036013;28;20076;-69
2022/11/28 13:05:59;;;;;;;6.70;3.40;;;9.00;69.60;;;;;;5036251;28;20030;-69
2022/11/28 13:08:48;;;;;;;6.67;3.70;;;9.00;69.60;;;;;;5036244;28;20499;-69
2022/11/28 13:11:24;;;;;;;6.60;3.73;;;9.00;70.30;;;;;;5036161;28;20052;-69
2022/11/28 13:13:53;;;;;;;5.77;3.57;;;9.00;70.00;;;;;;5036246;28;20044;-69
2022/11/28 13:16:29;;;;;;;5.63;3.57;;;8.90;69.10;;;;;;5035800;28;20034;-69
2022/11/28 13:19:13;;;;;;;6.07;3.33;;;9.00;70.10;;;;;;5026454;28;20084;-70
2022/11/28 13:21:52;;;;;;;6.97;3.73;;;9.00;70.00;;;;;;5001756;28;20048;-69
2022/11/28 13:24:40;;;;;;;6.10;3.70;;;9.00;69.70;;;;;;4997981;28;20081;-69
2022/11/28 13:27:41;;;;;;;5.37;2.93;;;8.90;69.60;;;;;;4995637;28;20033;-70
2022/11/28 13:30:19;;;;;;;4.87;3.20;;;8.90;70.00;;;;;;4995486;28;20034;-69
2022/11/28 13:32:54;;;;;;;6.07;3.13;;;9.00;70.40;;;;;;4996378;28;20443;-69
2022/11/28 13:35:20;;;;;;;5.20;3.60;;;9.00;70.00;;;;;;4979178;28;20034;-70
2022/11/28 13:37:56;;;;;;;5.60;3.50;;;8.90;70.30;;;;;;4996477;28;20030;-69
2022/11/28 13:40:24;;;;;;;9.73;6.73;;;8.90;71.30;;;;;;4996194;28;20085;-69
2022/11/28 13:42:56;;;;;;;8.00;4.57;;;8.90;71.80;;;;;;4996680;28;20042;-70
2022/11/28 13:45:30;;;;;;;6.93;4.10;;;8.90;72.20;;;;;;4978831;28;20404;-69
2022/11/28 13:47:56;;;;;;;8.37;3.80;;;8.90;72.10;;;;;;4995957;28;20481;-70
2022/11/28 13:50:21;;;;;;;6.10;3.90;;;8.90;72.00;;;;;;4995724;28;20038;-69
2022/11/28 13:53:01;;;;;;;11.87;3.60;;;8.90;71.60;;;;;;4996203;28;20039;-69
2022/11/28 13:55:48;;;;;;;6.20;3.40;;;8.90;71.50;;;;;;4996342;28;20035;-69
2022/11/28 13:58:22;;;;;;;4.83;3.60;;;8.90;70.60;;;;;;4996321;28;20034;-69
2022/11/28 14:01:08;;;;;;;15.27;7.90;;;8.90;70.80;;;;;;4996084;28;20121;-69
2022/11/28 14:03:43;;;;;;;9.30;4.50;;;8.90;70.50;;;;;;4996318;28;20045;-69
2022/11/28 14:06:10;;;;;;;9.53;4.80;;;8.90;70.50;;;;;;4996033;28;20038;-69
2022/11/28 14:08:39;;;;;;;7.33;4.20;;;8.90;70.80;;;;;;4996146;28;20034;-69
2022/11/28 14:11:04;;;;;;;9.83;4.87;;;8.90;70.90;;;;;;4996186;28;20100;-69
2022/11/28 14:13:46;;;;;;;8.53;4.40;;;8.90;71.00;;;;;;4995770;28;20113;-69
2022/11/28 14:16:17;;;;;;;8.03;4.77;;;8.90;70.60;;;;;;4978270;28;20031;-70
2022/11/28 14:19:17;;;;;;;7.67;4.30;;;8.90;70.80;;;;;;4995894;28;20530;-69
2022/11/28 14:21:55;;;;;;;11.90;4.03;;;8.90;71.40;;;;;;4995818;28;20061;-69
2022/11/28 14:24:45;;;;;;;6.70;4.37;;;8.90;71.20;;;;;;4995358;28;20473;-69
2022/11/28 14:27:21;;;;;;;9.87;4.23;;;8.90;71.30;;;;;;4995642;28;20113;-69
2022/11/28 14:29:49;;;;;;;9.20;4.60;;;8.90;71.80;;;;;;4995242;28;20046;-69
2022/11/28 14:32:29;;;;;;;9.80;4.40;;;8.90;71.90;;;;;;4995568;28;20046;-69
2022/11/28 14:34:55;;;;;;;10.87;6.23;;;8.80;71.80;;;;;;4992045;28;20039;-70
2022/11/28 14:37:20;;;;;;;10.60;5.63;;;8.90;71.80;;;;;;4992236;28;20407;-69
2022/11/28 14:39:48;;;;;;;7.70;5.40;;;8.80;71.60;;;;;;4994042;28;20042;-69
2022/11/28 14:42:13;;;;;;;11.03;6.23;;;8.80;72.10;;;;;;4995003;28;20030;-69
2022/11/28 14:44:45;;;;;;;11.90;5.90;;;8.80;72.20;;;;;;4994754;28;20042;-69
2022/11/28 14:47:34;;;;;;;8.77;6.00;;;8.80;72.40;;;;;;4994644;28;20095;-69
2022/11/28 14:50:08;;;;;;;8.77;5.90;;;8.80;72.50;;;;;;4994612;28;20030;-70
2022/11/28 14:52:41;;;;;;;7.40;4.77;;;8.80;72.60;;;;;;4994137;28;20050;-69
2022/11/28 14:55:07;;;;;;;7.67;5.23;;;8.80;72.60;;;;;;4993860;28;20088;-69
2022/11/28 14:57:36;;;;;;;8.80;4.90;;;8.80;72.90;;;;;;4994990;28;20445;-69
2022/11/28 15:00:24;;;;;;;7.53;4.83;;;8.70;73.10;;;;;;4994204;28;20034;-69
2022/11/28 15:03:14;;;;;;;9.60;5.77;;;8.70;73.10;;;;;;4994631;28;20068;-68
2022/11/28 15:05:47;;;;;;;8.20;5.40;;;8.80;73.30;;;;;;4994778;28;20034;-69
2022/11/28 15:08:39;;;;;;;;;;;8.70;73.20;;;;;;4995296;28;20039;-69
2022/11/28 15:11:31;;;;;;;11.33;5.63;;;8.70;73.40;;;;;;4998348;28;20356;-69
2022/11/28 15:14:20;;;;;;;10.05;6.13;;;8.70;73.20;;;;;;5012820;28;20121;-70
2022/11/28 15:16:48;;;;;;;8.33;5.87;;;8.70;72.80;;;;;;5013651;28;20050;-74
2022/11/28 15:19:27;;;;;;;7.57;5.20;;;8.70;72.70;;;;;;5013697;28;20484;-72
2022/11/28 15:21:54;;;;;;;10.30;6.03;;;8.70;72.90;;;;;;5013821;28;20065;-71
2022/11/28 15:24:30;;;;;;;8.40;6.00;;;8.70;72.90;;;;;;5013743;28;20104;-72
2022/11/28 15:27:21;;;;;;;8.03;5.53;;;8.70;72.60;;;;;;5013655;28;20048;-71
2022/11/28 15:29:58;;;;;;;12.93;5.77;;;8.70;72.50;;;;;;5013586;28;20396;-73
2022/11/28 15:32:26;;;;;;;10.37;6.37;;;8.70;72.90;;;;;;5011717;28;20108;-71
2022/11/28 15:35:00;;;;;;;10.33;6.27;;;8.70;73.50;;;;;;5013785;28;20100;-72
2022/11/28 15:37:33;;;;;;;12.23;7.23;;;8.70;74.00;;;;;;5013322;28;20046;-72
2022/11/28 15:40:03;;;;;;;11.63;8.50;;;8.60;74.50;;;;;;5013656;28;20044;-71
2022/11/28 15:42:32;;;;;;;21.73;10.77;;;8.60;74.60;;;;;;5013595;28;20066;-73
2022/11/28 15:45:10;;;;;;;25.87;10.73;;;8.60;74.70;;;;;;5013480;28;20038;-71
2022/11/28 15:47:37;;;;;;;22.63;11.47;;;8.60;74.70;;;;;;5013443;28;20036;-69
2022/11/28 15:50:27;;;;;;;20.43;12.60;;;8.60;74.60;;;;;;5013163;28;20058;-69
2022/11/28 15:53:01;;;;;;;16.67;12.33;;;8.60;74.70;;;;;;5013414;28;20119;-69
2022/11/28 15:55:30;;;;;;;17.40;11.57;;;8.50;74.70;;;;;;5013427;28;20030;-69
2022/11/28 15:58:27;;;;;;;21.57;11.60;;;8.50;75.00;;;;;;5013116;28;20034;-69
2022/11/28 16:01:12;;;;;;;14.87;10.00;;;8.50;75.90;;;;;;5012947;28;20557;-67
2022/11/28 16:03:44;;;;;;;20.27;9.90;;;8.50;75.90;;;;;;5012906;28;20096;-68
2022/11/28 16:06:10;;;;;;;12.05;8.93;;;8.50;76.00;;;;;;5013207;28;20499;-67
2022/11/28 16:08:47;;;;;;;11.47;8.27;;;8.50;76.50;;;;;;5013369;28;20038;-68
2022/11/28 16:11:18;;;;;;;11.87;8.40;;;8.50;76.40;;;;;;5012792;28;20407;-68
2022/11/28 16:13:43;;;;;;;11.57;8.00;;;8.40;76.30;;;;;;5013222;28;20069;-68
2022/11/28 16:16:14;;;;;;;16.33;7.40;;;8.40;75.40;;;;;;5013116;28;20068;-67
2022/11/28 16:18:59;;;;;;;13.50;8.40;;;8.40;75.30;;;;;;5013149;28;20042;-67
2022/11/28 16:21:32;;;;;;;11.93;8.37;;;8.40;75.10;;;;;;5013035;28;20030;-69
2022/11/28 16:24:00;;;;;;;13.50;7.90;;;8.40;75.10;;;;;;5012869;28;20565;-68
2022/11/28 16:26:26;;;;;;;13.73;8.23;;;8.40;75.40;;;;;;5012662;28;20030;-70
2022/11/28 16:29:17;;;;;;;11.60;8.13;;;8.40;75.50;;;;;;5012625;28;20108;-71
2022/11/28 16:31:44;;;;;;;12.53;8.13;;;8.40;75.50;;;;;;5011771;28;20056;-73
2022/11/28 16:34:14;;;;;;;11.93;7.97;;;8.40;75.30;;;;;;4995355;28;20077;-71
2022/11/28 16:36:43;;;;;;;13.13;7.70;;;8.40;75.60;;;;;;5012869;28;20041;-71
2022/11/28 16:39:08;;;;;;;12.13;8.13;;;8.30;75.80;;;;;;5012580;28;20042;-70
2022/11/28 16:41:35;;;;;;;15.60;8.63;;;8.30;75.80;;;;;;5013055;28;20108;-76
2022/11/28 16:44:09;;;;;;;16.97;11.93;;;8.30;75.80;;;;;;5012695;28;20502;-72
2022/11/28 16:46:38;;;;;;;16.90;11.53;;;8.40;76.10;;;;;;5011661;28;20112;-71
2022/11/28 16:49:08;;;;;;;17.87;13.50;;;8.30;76.30;;;;;;5012068;28;20499;-71
2022/11/28 16:51:39;;;;;;;21.37;17.53;;;8.30;76.40;;;;;;5012680;28;20073;-72
2022/11/28 16:54:28;;;;;;;50.40;38.03;;;8.30;76.40;;;;;;5012895;28;20121;-71
2022/11/28 16:57:10;;;;;;;23.40;17.40;;;8.30;76.40;;;;;;5012812;28;20491;-71
2022/11/28 16:59:36;;;;;;;17.70;12.15;;;8.30;76.30;;;;;;5012566;28;20420;-71
2022/11/28 17:02:02;;;;;;;17.27;11.43;;;8.30;76.10;;;;;;5012323;28;20038;-71
2022/11/28 17:04:30;;;;;;;14.20;9.63;;;8.30;76.10;;;;;;5012515;28;20037;-71
2022/11/28 17:06:57;;;;;;;12.60;8.97;;;8.30;76.00;;;;;;5012403;28;20034;-71
2022/11/28 17:09:23;;;;;;;16.83;9.70;;;8.30;76.00;;;;;;5012403;28;20045;-72
2022/11/28 17:12:16;;;;;;;14.30;8.20;;;8.40;76.10;;;;;;5012275;28;20034;-72
2022/11/28 17:14:43;;;;;;;10.90;8.15;;;8.40;75.00;;;;;;4998465;28;20083;-72
2022/11/28 17:17:13;;;;;;;12.97;8.27;;;8.40;74.70;;;;;;5012144;28;20065;-71
2022/11/28 17:19:39;;;;;;;12.53;8.13;;;8.40;74.60;;;;;;5012432;28;20405;-72
2022/11/28 17:22:06;;;;;;;13.37;7.97;;;8.30;74.20;;;;;;5012241;28;20084;-71
2022/11/28 17:24:33;;;;;;;12.47;7.63;;;8.30;74.70;;;;;;5013827;28;20057;-71
2022/11/28 17:26:59;;;;;;;10.50;7.40;;;8.30;75.00;;;;;;5015589;28;20026;-72
2022/11/28 17:29:26;;;;;;;12.27;7.43;;;8.30;74.80;;;;;;5016032;28;20034;-72
2022/11/28 17:31:55;;;;;;;11.97;8.23;;;8.30;73.60;;;;;;5015909;28;20038;-73
2022/11/28 17:34:24;;;;;;;12.87;8.83;;;8.30;73.50;;;;;;5015880;28;20030;-72
2022/11/28 17:36:50;;;;;;;15.60;8.30;;;8.30;73.80;;;;;;5015885;28;20491;-72
2022/11/28 17:39:16;;;;;;;10.83;7.60;;;8.30;73.10;;;;;;5015529;28;20068;-72
2022/11/28 17:41:42;;;;;;;12.00;8.93;;;8.30;73.50;;;;;;5015796;28;20030;-72
2022/11/28 17:44:29;;;;;;;12.03;8.73;;;8.30;73.20;;;;;;5016043;28;20036;-72
2022/11/28 17:46:56;;;;;;;12.93;8.63;;;8.30;73.40;;;;;;5015315;28;20111;-70
2022/11/28 17:49:22;;;;;;;11.03;8.93;;;8.30;73.80;;;;;;5015594;28;20084;-71
2022/11/28 17:51:50;;;;;;;12.90;8.73;;;8.30;73.40;;;;;;4997810;28;20462;-70
2022/11/28 17:54:17;;;;;;;14.37;8.83;;;8.30;73.80;;;;;;5012731;28;20048;-72
2022/11/28 17:56:45;;;;;;;12.83;9.10;;;8.30;74.40;;;;;;5015826;28;20492;-72
2022/11/28 17:59:12;;;;;;;16.73;10.10;;;8.30;74.40;;;;;;5013851;28;20045;-70
2022/11/28 18:01:38;;;;;;;22.30;12.73;;;8.30;74.90;;;;;;5012040;28;20037;-70
2022/11/28 18:04:04;;;;;;;19.53;11.10;;;8.30;73.50;;;;;;5012779;28;20045;-71
2022/11/28 18:06:30;;;;;;;16.70;10.73;;;8.30;74.10;;;;;;5014819;28;20457;-70
2022/11/28 18:08:58;;;;;;;15.73;10.73;;;8.30;74.30;;;;;;5015146;28;20088;-71
2022/11/28 18:11:24;;;;;;;14.87;11.30;;;8.30;74.40;;;;;;5014220;28;20403;-71
2022/11/28 18:13:50;;;;;;;19.27;12.27;;;8.30;74.90;;;;;;4997224;28;20373;-71